Date,TemperatureHighF,TemperatureAvgF,TemperatureLowF,DewpointHighF,DewpointAvgF,DewpointLowF,HumidityHigh,HumidityAvg,HumidityLow,PressureMaxIn,PressureMinIn,WindSpeedMaxMPH,WindSpeedAvgMPH,GustSpeedMaxMPH,PrecipitationSumIn
2013-1-1,37,32,20,26,18,6,72,57,45,29.79,29.58,12,7,27,0.00
2013-1-2,30,20,12,15,8,2,74,59,50,29.96,29.74,10,5,20,0.00
2013-1-3,26,15,4,10,0,-6,66,52,28,30.02,29.87,8,4,16,0.00
2013-1-4,38,29,16,24,19,9,81,66,51,29.86,29.66,13,5,27,0.60
2013-1-5,42,33,24,25,21,18,83,63,43,30.12,29.71,10,4,23,0.00
2013-1-6,43,33,25,30,26,20,89,74,54,30.09,29.79,10,3,20,0.00
2013-1-7,39,32,26,30,25,17,93,77,42,30.27,29.82,8,3,16,0.00
2013-1-8,46,36,25,30,28,24,94,72,50,30.24,30.11,12,5,26,0.00
2013-1-9,44,37,26,36,30,24,94,77,59,30.27,29.86,10,4,21,0.00
2013-1-10,47,42,34,30,24,22,65,49,39,30.39,29.90,13,7,29,0.00
2013-1-11,40,35,26,36,28,22,94,78,64,30.38,30.09,4,2,9,0.60
2013-1-12,44,41,37,43,40,36,99,97,94,30.10,29.98,2,1,6,0.00
2013-1-13,52,47,42,50,46,42,100,97,91,30.00,29.83,8,3,15,0.00
2013-1-14,61,52,42,53,44,28,97,74,39,30.10,29.71,10,6,20,0.00
2013-1-15,42,38,34,28,26,23,70,60,54,30.16,30.06,6,3,13,0.00
2013-1-16,36,33,30,33,30,23,98,89,58,30.09,29.68,5,1,10,0.30
2013-1-17,43,35,30,33,28,13,97,75,49,29.94,29.70,10,4,19,2.20
2013-1-18,30,22,18,15,1,-5,54,39,27,30.31,29.91,10,6,27,0.00
2013-1-19,49,37,22,33,23,6,75,57,39,30.25,29.75,14,8,28,0.00
2013-1-20,54,42,29,34,26,9,75,53,32,29.78,29.39,17,9,34,0.00
2013-1-21,28,25,21,21,10,4,90,54,38,29.96,29.66,9,5,21,0.00
2013-1-22,25,20,13,21,8,-2,92,61,34,29.96,29.62,11,6,24,0.00
2013-1-23,16,11,7,0,-8,-12,61,42,29,30.02,29.91,11,7,27,0.00
2013-1-24,20,11,2,-7,-10,-12,53,39,26,30.09,29.91,11,7,27,0.00
2013-1-25,24,16,8,13,-6,-12,86,38,22,30.16,29.93,9,5,26,0.00
2013-1-26,24,17,11,13,3,-7,89,58,30,30.10,29.86,9,5,20,0.00
2013-1-27,30,20,12,4,1,-5,62,43,26,30.32,30.10,10,6,21,0.00
2013-1-28,31,25,18,27,14,1,95,64,32,30.31,29.88,4,2,12,0.00
2013-1-29,34,30,26,33,28,24,97,92,87,30.05,29.87,4,0,10,0.80
2013-1-30,61,50,33,57,48,33,98,94,85,30.02,29.33,13,7,30,0.80
2013-1-31,60,48,32,58,37,15,93,68,36,29.44,28.83,17,12,42,3.40
2013-2-1,33,28,22,17,9,3,58,43,31,29.93,29.44,12,8,26,0.00
2013-2-2,30,24,17,12,7,2,56,46,38,30.09,29.90,8,6,18,0.00
2013-2-3,26,24,22,22,20,12,88,83,54,29.91,29.59,8,4,14,0.00
2013-2-4,30,24,20,21,12,5,90,60,38,29.80,29.58,13,7,28,0.00
2013-2-5,28,24,21,24,14,9,92,65,52,29.88,29.79,5,2,10,0.00
2013-2-6,39,30,25,27,20,5,93,67,39,30.14,29.78,10,4,21,0.60
2013-2-7,29,24,19,16,4,0,65,41,30,30.38,30.15,7,4,15,0.00
2013-2-8,32,29,18,31,26,16,99,88,66,30.35,29.44,21,10,39,0.00
2013-2-9,21,18,15,18,13,3,94,79,57,30.05,29.41,14,10,30,0.00
2013-2-10,40,24,8,14,5,0,77,47,21,30.24,30.06,9,4,19,1.30
2013-2-11,45,34,18,44,30,11,99,85,60,30.22,29.45,7,2,15,1.20
2013-2-12,45,39,31,41,30,25,96,68,51,29.73,29.46,13,7,29,0.00
2013-2-13,42,34,26,28,25,21,87,68,49,29.72,29.54,6,2,14,0.00
2013-2-14,45,37,31,29,23,20,83,58,38,29.85,29.57,6,4,13,0.00
2013-2-15,50,38,30,36,32,24,95,77,54,29.86,29.76,10,5,22,0.00
2013-2-16,38,34,31,33,28,18,97,79,54,29.81,29.57,8,4,16,0.30
2013-2-17,30,22,17,21,11,0,89,66,41,29.56,29.25,15,11,37,0.00
2013-2-18,32,22,14,3,1,-2,52,39,24,30.01,29.53,14,10,31,0.00
2013-2-19,47,37,23,43,25,2,97,63,39,30.02,29.44,9,4,17,2.40
2013-2-20,42,32,26,41,20,10,95,62,40,29.64,29.40,13,8,30,0.00
2013-2-21,33,28,24,16,13,10,65,54,42,30.02,29.63,12,8,24,0.00
2013-2-22,38,31,23,26,22,16,79,68,53,30.23,30.04,8,4,18,0.00
2013-2-23,39,34,28,34,29,24,97,81,70,30.19,29.78,6,3,12,2.20
2013-2-24,38,35,30,38,34,30,99,97,94,29.77,29.54,10,5,20,3.60
2013-2-25,41,35,30,33,30,28,99,84,63,30.10,29.75,5,2,11,0.50
2013-2-26,43,36,28,35,30,27,98,82,61,30.18,30.01,9,3,15,0.00
2013-2-27,41,40,38,41,38,33,99,95,82,30.01,29.41,14,9,39,9.40
2013-2-28,46,38,34,39,35,33,99,91,72,29.50,29.38,4,2,11,0.30
2013-3-1,41,38,35,36,31,28,94,75,63,29.53,29.38,7,4,15,0.00
2013-3-2,44,38,32,30,28,25,78,67,56,29.52,29.47,7,4,15,0.00
2013-3-3,42,35,32,32,28,25,92,76,65,29.50,29.41,6,4,13,0.00
2013-3-4,40,34,30,29,24,21,83,67,51,29.59,29.43,11,8,24,0.00
2013-3-5,44,36,31,34,28,23,93,72,57,29.93,29.59,9,5,20,0.00
2013-3-6,40,37,35,36,33,30,93,85,70,29.96,29.90,17,12,35,1.20
2013-3-7,37,32,30,32,30,29,98,94,76,29.91,29.85,15,10,31,1.40
2013-3-8,42,33,29,31,28,22,97,85,50,29.99,29.80,16,8,30,1.00
2013-3-9,42,36,28,31,26,21,95,68,54,30.20,29.99,12,6,20,0.00
2013-3-10,40,35,29,33,30,27,94,83,70,30.26,30.18,7,4,14,0.00
2013-3-11,52,42,35,40,36,32,94,82,62,30.18,30.01,8,5,15,0.00
2013-3-12,56,49,40,53,48,39,98,93,83,30.03,29.58,8,4,21,3.30
2013-3-13,52,45,34,51,33,20,98,68,32,29.64,29.54,9,6,20,0.00
2013-3-14,36,31,23,24,14,6,66,49,37,29.69,29.55,11,7,24,0.00
2013-3-15,41,30,20,27,11,-100,72,48,26,29.73,29.48,12,-4,25,0.00
2013-3-16,39,34,28,27,16,8,75,49,26,29.72,29.52,8,4,18,0.00
2013-3-17,38,31,23,20,11,4,74,45,25,30.17,29.73,11,5,22,0.00
2013-3-18,37,28,19,26,10,-2,93,47,29,30.31,30.12,8,4,16,0.00
2013-3-19,37,32,28,36,32,26,99,97,93,30.11,29.45,14,8,30,2.70
2013-3-20,39,31,24,26,21,18,94,69,42,29.67,29.55,12,4,30,0.00
2013-3-21,36,30,23,29,23,17,94,75,48,29.68,29.47,5,2,11,0.00
2013-3-22,41,34,28,28,20,15,93,58,38,29.60,29.47,10,6,21,0.00
2013-3-23,44,36,29,24,20,17,73,53,35,29.64,29.48,12,8,30,0.00
2013-3-24,47,38,31,30,23,19,75,54,39,29.67,29.58,8,5,23,0.00
2013-3-25,42,38,32,35,31,26,81,75,68,29.63,29.37,14,7,28,0.00
2013-3-26,50,41,33,32,25,19,92,57,31,29.64,29.39,9,5,20,0.30
2013-3-27,53,43,30,30,24,20,71,48,30,29.72,29.59,10,5,19,0.00
2013-3-28,46,42,37,35,33,29,89,72,52,29.88,29.73,7,4,15,0.00
2013-3-29,57,46,34,35,32,29,84,59,38,29.91,29.82,9,4,19,0.00
2013-3-30,56,47,37,33,24,14,73,44,20,29.97,29.86,8,4,16,0.00
2013-3-31,60,46,29,40,27,20,81,51,24,29.99,29.63,10,5,25,0.00
2013-4-1,61,47,35,46,38,12,97,72,36,29.65,29.36,11,7,23,1.10
2013-4-2,41,34,29,18,13,8,53,41,29,29.80,29.65,15,9,31,0.00
2013-4-3,45,37,30,19,13,9,60,38,23,30.01,29.79,14,10,27,0.00
2013-4-4,56,42,30,26,16,12,57,38,17,30.15,29.92,10,6,21,0.00
2013-4-5,61,47,38,32,27,20,71,48,23,29.93,29.48,10,7,22,0.00
2013-4-6,47,38,32,26,10,3,59,34,17,30.20,29.75,12,6,24,0.00
2013-4-7,52,42,28,41,28,13,81,59,35,30.20,29.88,14,6,32,0.00
2013-4-8,66,53,44,44,41,33,92,66,32,29.96,29.82,8,5,14,0.00
2013-4-9,73,55,46,54,44,39,92,68,38,29.95,29.71,11,5,25,0.00
2013-4-10,61,51,46,48,45,42,91,79,59,29.88,29.73,9,3,16,0.60
2013-4-11,50,46,42,46,42,36,97,85,68,29.99,29.69,9,3,18,1.10
2013-4-12,42,39,37,39,36,32,96,89,72,30.02,29.63,12,8,29,3.00
2013-4-13,53,43,36,40,37,34,95,79,51,29.78,29.60,12,5,23,0.00
2013-4-14,52,46,38,40,33,25,91,62,38,30.06,29.77,10,5,21,0.00
2013-4-15,53,44,32,40,32,-100,85,64,48,30.25,30.07,9,-7,14,0.00
2013-4-16,63,52,38,50,42,35,93,71,49,30.27,29.93,12,7,27,0.00
2013-4-17,67,59,48,52,38,27,85,49,25,30.19,29.92,10,6,21,0.00
2013-4-18,65,53,40,44,35,26,88,53,32,30.28,30.02,9,5,21,0.00
2013-4-19,74,63,52,63,58,44,98,85,63,30.01,29.51,13,8,30,0.00
2013-4-20,65,54,45,62,42,24,96,65,36,30.04,29.45,12,7,27,2.80
2013-4-21,52,42,34,28,22,18,71,45,27,30.53,30.06,10,5,21,0.00
2013-4-22,48,41,32,36,31,27,88,67,46,30.59,30.45,13,7,24,0.00
2013-4-23,42,41,40,41,38,32,97,90,71,30.45,29.97,11,8,22,0.90
2013-4-24,74,54,42,53,45,41,97,75,35,29.96,29.63,10,7,22,0.00
2013-4-25,65,55,44,52,37,26,92,56,24,30.11,29.70,10,6,24,0.60
2013-4-26,54,48,43,42,36,28,91,64,43,30.29,30.12,10,6,17,0.00
2013-4-27,62,51,36,45,37,32,97,64,36,30.29,30.14,7,3,15,0.00
2013-4-28,68,54,38,43,36,28,90,53,32,30.19,30.06,9,4,18,0.00
2013-4-29,70,57,47,48,38,15,88,54,17,30.14,30.04,8,4,19,0.00
2013-4-30,65,54,42,42,31,19,79,46,17,30.23,30.12,9,3,17,0.00
2013-5-1,65,53,38,38,33,-100,82,50,28,30.33,30.24,8,-7,14,0.00
2013-5-2,73,55,43,47,42,34,91,66,28,30.35,30.21,14,4,24,0.00
2013-5-3,55,48,42,45,41,39,89,76,64,30.37,30.24,10,6,20,0.00
2013-5-4,53,46,38,44,40,36,95,79,62,30.24,30.17,9,4,17,0.00
2013-5-5,56,47,37,43,40,35,95,77,56,30.19,30.11,9,4,17,0.00
2013-5-6,63,50,37,52,45,36,98,85,57,30.15,30.00,8,3,14,0.00
2013-5-7,77,62,44,61,52,43,97,71,50,30.04,29.93,7,3,14,0.00
2013-5-8,71,61,52,64,58,51,97,88,69,30.04,29.90,7,3,18,0.08
2013-5-9,69,59,56,63,58,55,99,95,73,29.90,29.73,6,2,11,0.59
2013-5-10,77,66,54,61,57,54,100,76,48,29.79,29.73,7,2,14,0.05
2013-5-11,71,63,58,62,59,54,95,85,69,29.77,29.54,10,5,23,0.00
2013-5-12,72,61,51,62,52,30,97,74,39,29.65,29.40,9,4,22,0.10
2013-5-13,59,50,40,35,31,26,76,47,31,29.88,29.66,8,4,22,0.00
2013-5-14,59,50,40,35,30,27,69,48,32,29.90,29.82,7,4,17,0.00
2013-5-15,66,53,38,52,40,32,90,65,34,29.91,29.54,9,4,22,0.00
2013-5-16,82,67,48,53,43,35,96,50,20,29.65,29.47,11,4,27,0.00
2013-5-17,68,59,48,46,42,37,78,53,34,30.08,29.66,8,4,21,0.00
2013-5-18,72,60,45,48,44,38,92,60,31,30.15,30.08,6,3,13,0.00
2013-5-19,70,56,47,54,50,45,96,80,51,30.19,30.08,8,3,16,0.13
2013-5-20,83,67,55,66,61,54,98,82,54,30.07,29.75,6,3,16,0.05
2013-5-21,75,60,51,66,57,50,98,91,70,29.85,29.71,11,4,20,0.16
2013-5-22,65,56,50,61,54,50,99,93,84,29.89,29.74,8,4,16,0.00
2013-5-23,76,66,54,70,63,54,100,91,74,29.78,29.67,10,4,27,0.10
2013-5-24,71,63,50,68,61,49,97,94,86,29.66,29.50,6,3,18,0.74
2013-5-25,52,48,42,51,47,40,98,96,92,29.65,29.54,7,4,19,0.54
2013-5-26,59,48,39,45,40,38,95,73,48,29.93,29.56,9,5,28,0.00
2013-5-27,72,57,40,44,40,34,92,57,25,30.02,29.91,8,4,20,0.00
2013-5-28,70,59,42,54,47,41,95,66,42,30.08,30.01,9,3,15,0.00
2013-5-29,74,63,58,67,60,53,97,90,77,30.06,29.85,5,2,12,0.71
2013-5-30,88,75,63,70,66,63,97,76,49,29.91,-26.25,8,4,20,0.00
2013-5-31,93,81,66,71,66,63,95,65,38,29.92,-26.25,7,3,17,0.00
2013-6-1,91,80,68,68,65,62,82,62,44,29.84,29.72,9,5,22,0.00
2013-6-2,88,77,67,70,66,64,89,72,49,29.76,-26.25,12,6,31,0.00
2013-6-3,77,69,64,69,64,43,95,85,47,29.69,-26.25,5,3,14,0.23
2013-6-4,71,62,52,47,44,41,68,52,39,29.94,-26.25,7,4,19,0.00
2013-6-5,76,63,49,51,47,43,88,57,37,29.98,-26.25,6,3,13,0.00
2013-6-6,75,64,54,57,50,43,82,62,41,0.00,-26.25,7,3,13,0.00
2013-6-7,59,56,54,57,54,49,98,94,81,29.94,-26.25,10,6,22,2.61
2013-6-8,78,63,54,65,58,53,99,84,61,29.85,29.44,8,5,19,0.50
2013-6-9,80,68,56,59,56,54,96,69,42,30.02,29.85,7,3,19,0.00
2013-6-10,68,61,55,59,57,54,97,86,65,30.04,29.86,7,3,14,0.65
2013-6-11,64,59,56,60,57,55,99,95,85,29.87,29.42,9,4,19,1.23
2013-6-12,70,62,56,60,56,52,99,81,58,29.66,29.40,9,3,23,0.00
2013-6-13,68,58,52,58,54,50,96,87,66,29.66,29.52,8,2,16,0.98
2013-6-14,74,60,52,60,54,49,96,81,56,29.60,29.47,9,5,22,1.00
2013-6-15,79,67,54,55,49,44,93,56,30,29.79,29.61,7,3,16,0.00
2013-6-16,76,66,53,63,54,47,87,66,46,29.80,29.58,6,4,15,0.00
2013-6-17,85,70,58,65,60,56,96,75,41,29.76,29.62,10,4,27,1.19
2013-6-18,73,63,58,65,60,57,98,90,65,29.79,29.72,8,2,19,0.98
2013-6-19,72,64,56,58,53,47,96,70,43,29.99,29.74,7,3,14,0.00
2013-6-20,78,67,52,56,52,49,96,63,38,30.09,29.99,5,3,14,0.00
2013-6-21,83,71,59,64,59,54,84,67,44,30.11,30.04,7,4,15,0.00
2013-6-22,83,72,63,64,59,55,75,64,46,30.08,29.97,9,4,20,0.00
2013-6-23,89,77,65,72,65,56,80,68,54,30.02,29.85,8,6,19,0.00
2013-6-24,92,80,70,73,70,66,93,73,49,29.89,29.72,9,5,22,0.08
2013-6-25,90,79,69,72,68,66,92,71,47,29.76,29.58,8,5,24,0.00
2013-6-26,85,74,68,74,69,66,94,83,63,29.69,29.57,7,3,17,0.05
2013-6-27,68,64,61,66,63,61,99,97,90,29.70,29.60,7,4,13,0.00
2013-6-28,82,71,62,74,68,62,100,92,71,29.61,29.33,8,5,20,0.10
2013-6-29,82,74,70,74,70,67,97,85,67,29.57,29.36,7,4,18,0.00
2013-6-30,84,75,69,76,70,68,94,85,72,29.78,29.57,8,4,18,0.13
2013-7-1,84,75,71,76,72,70,98,90,75,29.92,29.78,7,3,18,0.13
2013-7-2,82,73,61,76,69,60,97,89,75,30.04,29.91,8,4,14,0.00
2013-7-3,88,76,63,76,70,61,96,81,63,30.04,29.97,9,4,20,0.00
2013-7-4,92,82,73,76,74,71,94,76,57,30.03,29.94,9,5,20,0.00
2013-7-5,93,84,76,76,74,72,87,71,52,29.99,29.89,7,5,17,0.00
2013-7-6,91,83,75,76,72,66,88,71,52,29.92,29.82,6,4,15,0.00
2013-7-7,92,79,69,75,71,64,92,75,56,29.88,29.76,4,2,10,0.00
2013-7-8,85,75,66,76,71,64,95,86,74,29.90,29.75,8,4,15,0.05
2013-7-9,74,68,65,68,66,64,98,91,80,29.94,29.88,5,3,10,0.00
2013-7-10,86,74,66,76,71,65,99,89,68,29.92,29.64,7,4,18,0.05
2013-7-11,81,76,71,75,72,69,96,90,75,29.75,29.62,5,2,12,0.26
2013-7-12,72,70,66,70,62,58,95,77,66,30.04,29.76,10,6,21,0.00
2013-7-13,75,69,65,70,66,63,95,90,83,30.14,30.04,5,3,12,0.00
2013-7-14,91,79,70,76,72,69,99,81,49,31.58,30.04,6,2,12,0.00
2013-7-15,92,81,71,76,72,69,97,76,52,30.04,29.94,5,2,11,0.00
2013-7-16,92,81,72,72,69,66,92,67,43,30.02,29.94,6,2,14,0.00
2013-7-17,96,83,70,75,71,67,93,68,42,30.01,29.86,7,3,14,0.00
2013-7-18,91,82,76,76,72,68,85,71,51,29.86,29.79,9,4,16,0.00
2013-7-19,97,87,77,77,75,72,88,69,45,29.79,29.57,10,6,23,0.00
2013-7-20,94,84,74,79,74,70,91,73,50,29.64,29.49,9,4,23,0.00
2013-7-21,81,74,70,68,65,61,91,73,58,29.83,29.65,9,4,14,0.00
2013-7-22,79,72,67,72,68,65,96,86,69,29.84,29.72,10,4,15,0.00
2013-7-23,80,72,69,77,71,67,99,96,85,29.72,29.38,5,2,15,4.42
2013-7-24,86,77,68,75,68,56,99,76,54,29.79,29.43,7,3,17,0.00
2013-7-25,68,62,59,59,55,49,96,79,63,29.94,29.80,9,5,20,0.18
2013-7-26,70,64,60,67,63,59,97,94,85,29.90,29.76,7,3,17,0.82
2013-7-27,84,72,59,69,64,58,98,78,50,29.89,29.83,5,3,12,0.00
2013-7-28,79,70,66,71,68,64,96,90,76,29.87,29.81,7,3,13,0.00
2013-7-29,84,73,67,73,69,65,99,88,68,29.87,29.80,6,2,18,0.00
2013-7-30,83,72,62,68,61,55,98,70,42,29.95,29.86,5,2,15,0.00
2013-7-31,83,72,60,64,60,56,94,68,43,29.96,29.89,4,2,11,0.00
2013-8-1,83,72,62,68,63,60,95,74,52,29.91,29.74,7,3,17,0.00
2013-8-2,83,72,64,69,63,59,96,75,48,29.75,29.63,7,3,18,0.00
2013-8-3,79,71,65,66,63,61,90,74,54,29.72,29.62,8,4,18,0.00
2013-8-4,80,69,59,62,58,55,92,70,43,29.75,29.60,6,2,16,0.00
2013-8-5,76,64,54,55,49,42,89,61,31,29.91,29.75,7,3,17,0.00
2013-8-6,77,65,51,56,52,47,92,65,40,29.93,-26.25,7,2,13,0.00
2013-8-7,80,68,55,62,55,48,96,66,38,0.00,-26.25,6,2,15,0.00
2013-8-8,82,72,64,72,66,55,94,82,69,0.00,-26.25,8,4,20,0.24
2013-8-9,75,73,71,74,71,69,98,95,90,29.78,-26.25,8,4,17,1.70
2013-8-10,84,74,63,72,63,54,99,70,41,29.85,29.63,7,4,17,0.00
2013-8-11,80,68,54,60,55,51,95,68,43,29.92,29.84,4,2,14,0.00
2013-8-12,82,71,60,65,59,55,94,69,44,29.89,29.77,6,2,13,0.00
2013-8-13,76,69,65,68,64,62,94,85,66,29.78,29.54,4,1,10,0.00
2013-8-14,74,67,60,64,55,52,94,68,49,29.82,29.51,10,4,23,0.00
2013-8-15,77,65,53,55,52,50,93,66,40,29.97,29.82,6,2,18,0.00
2013-8-16,79,68,55,58,55,52,91,66,40,30.05,29.96,7,3,15,0.00
2013-8-17,77,68,57,60,57,53,94,70,49,30.13,30.05,7,3,14,0.00
2013-8-18,80,69,58,64,60,56,96,73,46,30.13,29.95,4,2,10,0.00
2013-8-19,82,71,59,64,60,57,92,69,45,29.95,29.79,5,3,14,0.00
2013-8-20,85,74,64,65,62,59,90,68,41,29.95,29.84,6,2,12,0.00
2013-8-21,88,75,62,67,64,60,92,70,45,29.97,29.87,6,2,13,0.00
2013-8-22,85,75,66,71,68,63,91,78,57,29.88,29.67,8,4,18,0.00
2013-8-23,77,71,61,69,61,50,95,69,50,29.97,29.66,7,4,16,0.00
2013-8-24,73,65,56,52,48,43,77,55,34,30.19,29.97,8,4,16,0.00
2013-8-25,82,68,53,57,53,48,93,61,34,30.20,30.04,6,3,15,0.00
2013-8-26,82,72,66,66,62,56,82,71,55,30.04,29.73,10,5,22,0.00
2013-8-27,78,71,64,71,67,64,97,87,67,29.73,29.67,7,3,13,0.20
2013-8-28,80,69,61,69,64,61,98,86,59,29.82,29.69,7,3,14,0.00
2013-8-29,67,64,61,65,62,58,99,93,88,29.91,29.79,8,5,17,0.00
2013-8-30,82,70,62,68,64,59,90,80,60,29.87,29.67,6,4,15,0.00
2013-8-31,81,74,68,74,71,67,96,89,77,29.68,29.63,7,4,14,0.00
2013-9-1,79,73,68,76,71,67,97,94,87,29.72,29.64,6,3,16,0.92
2013-9-2,81,74,70,77,72,68,98,92,79,29.72,29.55,7,3,16,0.26
2013-9-3,81,73,64,72,68,61,98,86,69,29.66,29.53,7,3,18,0.00
2013-9-4,80,69,58,61,58,55,95,70,45,29.78,29.65,7,4,17,0.00
2013-9-5,67,62,51,63,57,47,96,85,71,29.98,29.71,6,2,13,0.13
2013-9-6,68,58,46,50,44,40,90,62,37,30.07,29.96,5,2,14,0.00
2013-9-7,78,64,49,57,51,45,89,64,40,29.96,29.72,7,4,18,0.00
2013-9-8,74,65,51,62,52,39,85,65,37,29.95,29.59,10,4,22,0.00
2013-9-9,69,58,42,51,45,40,93,65,42,30.08,29.95,7,3,16,0.00
2013-9-10,76,67,57,70,62,50,93,84,77,30.02,29.88,10,4,20,0.00
2013-9-11,94,80,69,78,72,68,98,78,46,29.91,29.78,7,4,16,0.00
2013-9-12,87,76,67,75,71,66,96,83,62,29.82,29.52,9,4,21,0.44
2013-9-13,80,69,60,70,65,56,99,87,62,29.59,29.39,5,2,17,0.29
2013-9-14,68,60,51,56,53,49,94,77,63,29.91,29.60,5,3,11,0.00
2013-9-15,72,59,48,54,51,48,98,75,47,29.99,29.90,6,3,14,0.00
2013-9-16,66,58,50,58,50,39,90,75,60,30.08,29.87,7,3,20,0.05
2013-9-17,63,51,41,44,39,35,93,64,42,30.19,30.09,9,4,20,0.00
2013-9-18,73,57,42,50,45,41,96,68,35,0.00,-26.25,5,2,12,0.00
2013-9-19,79,63,48,55,52,46,92,70,40,0.00,-26.25,5,2,16,0.00
2013-9-20,78,63,50,59,55,49,97,77,44,0.00,-26.25,6,2,10,0.00
2013-9-21,75,66,55,66,61,54,98,84,60,0.00,-26.25,9,4,22,0.00
2013-9-22,71,65,52,67,58,47,96,78,51,0.00,-26.25,9,4,23,0.28
2013-9-23,63,54,45,47,42,39,85,66,50,0.00,-26.25,7,4,17,0.00
2013-9-24,67,53,39,46,42,38,94,68,41,0.00,-26.25,6,3,16,0.00
2013-9-25,64,54,44,50,47,43,95,76,57,0.00,-26.25,7,3,17,0.00
2013-9-26,63,58,52,51,49,46,89,73,58,0.00,-26.25,6,3,14,0.00
2013-9-27,65,58,50,54,51,47,93,77,60,0.00,-26.25,7,3,14,0.00
2013-9-28,71,57,46,58,51,46,97,83,58,0.00,-26.25,7,2,13,0.00
2013-9-29,64,54,44,57,48,44,99,84,48,0.00,-26.25,7,2,13,0.00
2013-9-30,65,56,47,54,51,46,98,83,57,0.00,-26.25,7,2,12,0.00
2013-10-1,77,60,46,56,51,45,98,75,39,0.00,-26.25,6,2,12,0.00
2013-10-2,80,66,54,62,57,52,95,75,51,0.00,-26.25,9,3,20,0.00
2013-10-3,78,64,53,57,51,46,95,67,33,0.00,-26.25,5,2,11,0.00
2013-10-4,65,58,50,62,54,48,96,86,67,0.00,-26.25,3,1,7,0.29
2013-10-5,69,61,56,62,57,54,98,86,65,0.00,-26.25,5,2,9,0.00
2013-10-6,60,57,55,58,56,54,98,94,86,0.00,-26.25,7,4,15,0.38
2013-10-7,77,67,57,72,64,55,99,91,78,0.00,-26.25,10,4,26,0.00
2013-10-8,66,58,51,55,44,38,79,61,39,0.00,-26.25,7,4,17,0.00
2013-10-9,60,52,45,47,44,40,96,74,53,0.00,-26.25,10,4,20,0.00
2013-10-10,60,53,44,54,50,44,97,88,75,0.00,-26.25,8,3,15,0.00
2013-10-11,67,57,51,57,51,48,97,82,56,0.00,-26.25,6,3,13,0.00
2013-10-12,60,56,52,57,53,49,96,89,82,0.00,-26.25,9,6,20,0.00
2013-10-13,60,52,41,50,46,40,96,81,61,30.26,-26.25,7,4,17,0.00
2013-10-14,66,50,36,50,43,36,98,81,38,30.26,30.09,4,1,8,0.00
2013-10-15,66,56,47,54,50,46,96,82,59,30.12,30.04,6,2,12,0.00
2013-10-16,61,55,47,56,53,46,99,93,80,30.04,29.76,5,2,10,0.00
2013-10-17,72,62,54,63,58,53,99,88,66,29.76,29.58,6,3,14,0.05
2013-10-18,67,61,45,62,52,42,97,74,46,29.77,29.46,8,4,22,0.00
2013-10-19,67,54,42,47,44,39,91,68,41,29.83,29.62,6,2,13,0.00
2013-10-20,63,53,40,50,40,31,95,65,34,29.87,29.55,9,4,23,0.00
2013-10-21,68,52,38,44,40,35,88,65,39,29.96,29.86,6,3,14,0.00
2013-10-22,68,55,42,54,46,38,96,74,50,29.86,29.55,8,3,17,0.00
2013-10-23,52,45,37,38,35,33,91,68,50,29.66,29.45,4,1,8,0.00
2013-10-24,53,45,37,36,30,23,83,58,34,29.75,29.49,8,4,21,0.00
2013-10-25,50,40,32,36,29,24,86,64,42,30.02,29.75,7,3,17,0.00
2013-10-26,56,44,30,37,31,26,93,63,32,30.03,29.75,10,4,27,0.00
2013-10-27,55,48,37,41,34,28,89,62,41,29.93,29.69,7,4,19,0.05
2013-10-28,58,45,33,35,31,24,89,61,39,30.21,29.93,11,4,23,0.00
2013-10-29,50,39,30,34,27,22,94,65,35,30.29,30.21,5,2,12,0.00
2013-10-30,54,40,32,44,37,30,96,87,63,30.24,30.05,4,1,11,0.05
2013-10-31,63,51,35,60,48,34,98,92,80,30.10,29.67,8,3,20,0.05
2013-11-1,72,65,59,64,59,54,95,81,65,29.65,29.31,14,8,34,0.00
2013-11-2,68,56,47,54,46,40,97,71,39,29.57,29.42,5,2,16,0.00
2013-11-3,52,42,33,47,32,16,95,69,40,30.27,29.57,7,4,16,0.05
2013-11-4,42,33,26,23,20,15,85,58,35,30.34,-26.25,8,3,18,0.00
2013-11-5,52,38,26,35,28,22,87,69,43,30.57,-26.25,4,2,10,0.00
2013-11-6,62,51,38,51,42,33,90,73,48,30.38,29.91,8,4,20,0.00
2013-11-7,67,54,37,60,51,33,94,88,69,29.91,29.53,10,5,22,0.36
2013-11-8,50,40,31,35,28,21,88,62,46,29.94,29.67,10,5,25,0.00
2013-11-9,45,38,30,29,24,21,76,57,39,30.06,29.90,7,4,17,0.00
2013-11-10,57,47,41,44,37,30,91,68,50,29.89,29.59,8,4,21,0.05
2013-11-11,52,45,39,34,28,24,63,52,34,29.95,29.70,9,5,23,0.00
2013-11-12,50,36,27,39,25,16,94,66,52,30.06,29.75,9,5,21,0.15
2013-11-13,37,29,24,17,14,11,72,55,38,31.58,30.05,8,4,16,0.00
2013-11-14,51,40,28,24,20,16,61,47,32,30.04,29.89,9,5,21,0.00
2013-11-15,62,47,33,34,23,15,68,40,20,30.05,29.95,8,4,17,0.00
2013-11-16,61,46,37,35,30,22,85,55,22,30.18,30.04,5,2,11,0.00
2013-11-17,61,49,34,58,45,33,98,88,66,30.18,29.70,4,2,11,0.00
2013-11-18,66,60,48,62,49,32,99,70,42,29.69,29.36,10,6,25,0.34
2013-11-19,48,40,31,33,22,16,57,48,38,30.13,29.50,12,7,29,0.00
2013-11-20,41,32,26,17,14,11,63,47,29,30.47,30.13,7,4,16,0.00
2013-11-21,48,36,23,31,21,14,73,55,33,0.00,-26.25,6,3,13,0.00
2013-11-22,47,44,41,46,42,32,97,90,69,0.00,-26.25,4,1,8,0.13
2013-11-23,48,41,30,47,27,14,97,59,34,0.00,-26.25,11,7,25,0.00
2013-11-24,30,24,20,17,4,-5,71,42,25,0.00,-26.25,14,10,34,0.00
2013-11-25,33,25,16,17,3,-6,57,38,20,0.00,-26.25,8,6,20,0.00
2013-11-26,41,37,31,40,24,17,95,60,43,0.00,-26.25,7,4,16,0.00
2013-11-27,62,52,38,61,51,34,98,96,85,31.58,-26.25,10,6,32,1.69
2013-11-28,38,31,24,33,17,8,85,56,37,30.29,-26.25,12,8,29,0.00
2013-11-29,34,27,21,18,11,4,77,52,35,30.40,30.29,7,4,16,0.00
2013-11-30,35,26,18,23,15,7,72,62,53,0.00,-26.25,5,2,10,0.00
2013-12-1,45,38,32,42,35,24,99,89,72,30.10,-26.25,4,2,9,0.13
2013-12-2,40,38,36,39,37,36,99,98,96,29.87,29.78,4,1,7,0.00
2013-12-3,48,39,33,39,35,30,99,87,58,29.80,29.68,6,3,12,0.00
2013-12-4,45,35,29,31,29,26,95,78,52,30.06,29.80,6,2,11,0.00
2013-12-5,56,45,31,55,42,29,98,88,76,30.06,29.77,7,2,17,0.00
2013-12-6,56,49,35,55,46,34,98,88,71,29.98,29.70,7,4,15,0.42
2013-12-7,40,34,26,35,28,19,97,79,56,30.31,29.93,8,3,18,0.13
2013-12-8,30,28,21,21,16,13,80,61,49,30.43,30.31,6,2,10,0.00
2013-12-9,41,34,27,41,32,16,99,94,56,30.35,29.74,6,4,12,0.26
2013-12-10,35,31,24,34,30,19,98,95,79,29.86,29.65,5,2,11,0.00
2013-12-11,30,25,21,21,19,17,86,77,67,30.06,29.86,9,5,22,0.00
2013-12-12,25,21,15,18,8,1,81,59,37,30.12,29.99,9,4,21,0.00
2013-12-13,29,22,15,16,11,5,75,63,49,0.00,-26.25,11,6,22,0.00
2013-12-14,30,17,10,29,8,-5,97,68,48,0.00,-26.25,10,5,24,0.00
2013-12-15,37,29,22,37,27,20,99,93,80,29.63,-26.25,16,4,32,0.73
2013-12-16,29,24,16,22,13,6,87,63,41,29.80,-26.25,9,2,21,0.00
2013-12-17,21,15,6,20,10,1,94,81,62,31.58,-26.25,8,3,18,0.00
2013-12-18,35,26,16,22,19,15,94,77,54,31.58,-26.25,8,5,20,0.00
2013-12-19,44,34,25,28,24,20,80,67,47,29.97,-26.25,11,5,24,0.08
2013-12-20,53,42,32,39,32,26,79,68,52,29.97,29.76,8,3,16,0.00
2013-12-21,58,50,43,49,44,35,92,81,70,29.82,29.72,9,5,17,0.00
2013-12-22,54,43,35,53,42,35,99,96,88,29.88,29.65,12,4,24,0.00
2013-12-23,38,35,33,38,35,33,100,100,99,29.94,29.83,6,2,14,0.77
2013-12-24,38,33,27,37,22,16,98,66,48,30.05,29.88,7,5,18,0.00
2013-12-25,27,19,14,17,6,1,68,55,42,30.26,30.05,10,4,20,0.00
2013-12-26,35,27,16,32,22,8,96,83,63,30.06,-26.25,6,2,13,0.00
2013-12-27,34,28,23,23,20,18,89,73,55,30.11,30.05,9,4,17,0.00
2013-12-28,47,35,26,29,25,21,82,68,45,30.08,29.84,10,4,19,0.00
2013-12-29,43,38,30,42,33,24,98,83,67,29.90,29.25,12,4,27,1.31
2013-12-30,42,33,20,36,24,9,96,71,39,30.02,29.38,11,5,22,0.00
2013-12-31,25,19,14,15,6,-4,71,55,43,30.04,29.87,7,4,14,0.00
2014-1-1,28,22,15,12,8,5,69,54,42,30.24,30.05,8,4,18,0.00
2014-1-2,23,14,1,17,11,-1,92,89,58,31.58,29.86,12,7,29,0.00